Time;durP1;ratioP1;P1;durP2;ratioP2;P2;SDS_P1;SDS_P2;PMS_P1;PMS_P2;Temp;Humidity;BMP_temperature;BMP_pressure;BME280_temperature;BME280_humidity;BME280_pressure;Samples;Min_cycle;Max_cycle;Signal;HPM_P1;HPM_P2
2023/10/19 00:01:38;;;;;;;;;;;;;;;;;;5014340;28;4572;-66
2023/10/19 00:04:05;;;;;;;;;;;;;;;;;;5014302;28;4588;-66
2023/10/19 00:06:32;;;;;;;;;;;;;;;;;;4996356;28;5018;-66
2023/10/19 00:08:59;;;;;;;;;;;;;;;;;;5013420;28;4948;-66
2023/10/19 00:14:27;;;;;;;;;;;;;;;;;;5014945;28;4742;-66
2023/10/19 00:16:53;;;;;;;;;;;;;;;;;;5013496;28;4471;-66
2023/10/19 00:19:21;;;;;;;;;;;;;;;;;;5018568;28;5133;-66
2023/10/19 00:21:50;;;;;;;;;;;;;;;;;;5031177;28;4688;-66
2023/10/19 00:30:23;;;;;;;;;;;;;;;;;;5016856;28;4504;-66
2023/10/19 00:36:06;;;;;;;;;;;;;;;;;;5017553;28;4621;-66
2023/10/19 00:41:34;;;;;;;;;;;;;;;;;;5018437;28;5548;-66
2023/10/19 00:44:03;;;;;;;;;;;;;;;;;;4999322;28;4963;-66
2023/10/19 00:52:25;;;;;;;;;;;;;;;;;;5017404;28;5158;-64
2023/10/19 00:57:54;;;;;;;;;;;;;;;;;;5017498;28;4604;-64
2023/10/19 01:03:22;;;;;;;;;;;;;;;;;;5017165;28;5011;-64
2023/10/19 01:08:51;;;;;;;;;;;;;;;;;;5017011;28;5025;-65
2023/10/19 01:11:19;;;;;;;;;;;;;;;;;;5032633;28;1910;-64
2023/10/19 01:16:50;;;;;;;;;;;;;;;;;;5016988;28;4452;-64
2023/10/19 01:22:18;;;;;;;;;;;;;;;;;;5017320;28;4986;-65
2023/10/19 01:24:43;;;;;;;;;;;;;;;;;;5016394;28;4992;-64
2023/10/19 01:27:08;;;;;;;;;;;;;;;;;;4999059;28;4931;-64
2023/10/19 01:29:34;;;;;;;;;;;;;;;;;;5017474;28;1188;-64
2023/10/19 01:32:08;;;;;;;;;;;;;;;;;;5016587;28;4997;-64
2023/10/19 01:37:38;;;;;;;;;;;;;;;;;;5017152;28;4989;-65
2023/10/19 01:40:04;;;;;;;;;;;;;;;;;;5016219;28;4901;-65
2023/10/19 01:42:30;;;;;;;;;;;;;;;;;;5016632;28;4492;-64
2023/10/19 01:44:55;;;;;;;;;;;;;;;;;;5016075;28;5048;-64
2023/10/19 01:50:23;;;;;;;;;;;;;;;;;;5017358;28;4546;-65
2023/10/19 01:52:48;;;;;;;;;;;;;;;;;;5016194;28;4548;-64
2023/10/19 01:58:28;;;;;;;;;;;;;;;;;;5016266;28;4985;-65
2023/10/19 02:01:00;;;;;;;;;;;;;;;;;;5015904;28;4396;-65
2023/10/19 02:03:28;;;;;;;;;;;;;;;;;;5016643;28;5113;-65
2023/10/19 02:06:10;;;;;;;;;;;;;;;;;;5016078;28;4616;-64
2023/10/19 02:11:41;;;;;;;;;;;;;;;;;;5016769;28;4539;-65
2023/10/19 02:17:09;;;;;;;;;;;;;;;;;;5016186;28;4539;-64
2023/10/19 02:22:37;;;;;;;;;;;;;;;;;;5015645;28;5008;-64
2023/10/19 02:25:05;;;;;;;;;;;;;;;;;;5015502;28;4940;-64
2023/10/19 02:27:30;;;;;;;;;;;;;;;;;;5015514;28;4592;-65
2023/10/19 02:29:55;;;;;;;;;;;;;;;;;;5015717;28;5289;-65
2023/10/19 02:35:23;;;;;;;;;;;;;;;;;;5016460;28;4549;-64
2023/10/19 02:40:51;;;;;;;;;;;;;;;;;;5015280;28;4714;-65
2023/10/19 02:43:17;;;;;;;;;;;;;;;;;;5015567;28;4604;-65
2023/10/19 02:45:43;;;;;;;;;;;;;;;;;;5015269;28;4881;-65
2023/10/19 02:48:12;;;;;;;;;;;;;;;;;;5015300;28;4808;-65
2023/10/19 02:50:37;;;;;;;;;;;;;;;;;;5016047;28;1910;-65
2023/10/19 02:53:04;;;;;;;;;;;;;;;;;;5013993;28;5031;-65
2023/10/19 02:55:29;;;;;;;;;;;;;;;;;;5014829;28;5232;-64
2023/10/19 02:57:54;;;;;;;;;;;;;;;;;;5014850;28;4888;-64
2023/10/19 03:03:22;;;;;;;;;;;;;;;;;;5015275;28;5035;-65
2023/10/19 03:05:47;;;;;;;;;;;;;;;;;;5015048;28;4831;-64
2023/10/19 03:08:15;;;;;;;;;;;;;;;;;;5015334;28;978;-64
2023/10/19 03:10:43;;;;;;;;;;;;;;;;;;5014670;28;5058;-64
2023/10/19 03:16:12;;;;;;;;;;;;;;;;;;5015136;28;4961;-65
2023/10/19 03:21:46;;;;;;;;;;;;;;;;;;5014901;28;5311;-64
2023/10/19 03:27:23;;;;;;;;;;;;;;;;;;5014565;28;4924;-64
2023/10/19 03:29:59;;;;;;;;;;;;;;;;;;5014838;28;4999;-64
2023/10/19 03:32:32;;;;;;;;;;;;;;;;;;5014661;28;1914;-65
2023/10/19 03:38:01;;;;;;;;;;;;;;;;;;5014661;28;4894;-65
2023/10/19 03:40:30;;;;;;;;;;;;;;;;;;5012713;28;4406;-64
2023/10/19 03:42:55;;;;;;;;;;;;;;;;;;5012695;28;5111;-64
2023/10/19 03:45:23;;;;;;;;;;;;;;;;;;5014345;28;4900;-64
2023/10/19 03:54:24;;;;;;;;;;;;;;;;;;5033921;28;4784;-65
2023/10/19 03:56:50;;;;;;;;;;;;;;;;;;5029396;28;4556;-65
2023/10/19 03:59:17;;;;;;;;;;;;;;;;;;5020562;28;1219;-65
2023/10/19 04:01:43;;;;;;;;;;;;;;;;;;5014260;28;4427;-64
2023/10/19 04:04:09;;;;;;;;;;;;;;;;;;5032382;28;5219;-64
2023/10/19 04:06:34;;;;;;;;;;;;;;;;;;5037812;28;4958;-65
2023/10/19 04:08:59;;;;;;;;;;;;;;;;;;5026336;28;4996;-65
2023/10/19 04:14:30;;;;;;;;;;;;;;;;;;5018870;28;4578;-65
2023/10/19 04:16:59;;;;;;;;;;;;;;;;;;5020459;28;4901;-65
2023/10/19 04:19:24;;;;;;;;;;;;;;;;;;5036319;28;5037;-65
2023/10/19 04:21:50;;;;;;;;;;;;;;;;;;5018379;28;4593;-65
2023/10/19 04:27:22;;;;;;;;;;;;;;;;;;5021624;28;4568;-65
2023/10/19 04:29:49;;;;;;;;;;;;;;;;;;5026601;28;5049;-64
2023/10/19 04:32:14;;;;;;;;;;;;;;;;;;5037579;28;1967;-65
2023/10/19 04:34:40;;;;;;;;;;;;;;;;;;5050094;28;6208;-65
2023/10/19 04:37:28;;;;;;;;;;;;;;;;;;5034621;28;5050;-65
2023/10/19 04:39:54;;;;;;;;;;;;;;;;;;5022946;28;4641;-64
2023/10/19 04:42:27;;;;;;;;;;;;;;;;;;5031961;28;4923;-65
2023/10/19 04:44:52;;;;;;;;;;;;;;;;;;5036895;28;4752;-65
2023/10/19 04:47:18;;;;;;;;;;;;;;;;;;5035704;28;3095;-65
2023/10/19 04:49:43;;;;;;;;;;;;;;;;;;5045175;28;4460;-66
2023/10/19 04:58:47;;;;;;;;;;;;;;;;;;5017850;28;4657;-65
2023/10/19 05:01:12;;;;;;;;;;;;;;;;;;5014183;28;5039;-64
2023/10/19 05:03:37;;;;;;;;;;;;;;;;;;5019325;28;4697;-65
2023/10/19 05:06:03;;;;;;;;;;;;;;;;;;5037144;28;5099;-66
2023/10/19 05:11:31;;;;;;;;;;;;;;;;;;5037214;28;4703;-65
2023/10/19 05:13:56;;;;;;;;;;;;;;;;;;5036712;28;4954;-64
2023/10/19 05:16:21;;;;;;;;;;;;;;;;;;5035979;28;5103;-64
2023/10/19 05:18:46;;;;;;;;;;;;;;;;;;5036582;28;4622;-64
2023/10/19 05:21:12;;;;;;;;;;;;;;;;;;5036119;28;4818;-64
2023/10/19 05:26:40;;;;;;;;;;;;;;;;;;5036880;28;5217;-65
2023/10/19 05:29:06;;;;;;;;;;;;;;;;;;5036558;28;1202;-64
2023/10/19 05:31:31;;;;;;;;;;;;;;;;;;5036137;28;4702;-64
2023/10/19 05:33:56;;;;;;;;;;;;;;;;;;5036778;28;4767;-63
2023/10/19 05:39:27;;;;;;;;;;;;;;;;;;5031400;28;4758;-63
2023/10/19 05:51:00;;;;;;;;;;;;;;;;;;5014352;28;5064;-64
2023/10/19 05:53:25;;;;;;;;;;;;;;;;;;5027777;28;2654;-64
2023/10/19 05:55:51;;;;;;;;;;;;;;;;;;5034750;28;4659;-64
2023/10/19 05:58:16;;;;;;;;;;;;;;;;;;5019330;28;5047;-64
2023/10/19 06:00:41;;;;;;;;;;;;;;;;;;5015851;28;5043;-64
2023/10/19 06:03:07;;;;;;;;;;;;;;;;;;5015674;28;5143;-64
2023/10/19 06:05:32;;;;;;;;;;;;;;;;;;5014654;28;2688;-64
2023/10/19 06:07:59;;;;;;;;;;;;;;;;;;5015687;28;4838;-64
2023/10/19 06:10:39;;;;;;;;;;;;;;;;;;5016345;28;5081;-64
2023/10/19 06:13:04;;;;;;;;;;;;;;;;;;5029422;28;5066;-66
2023/10/19 06:15:31;;;;;;;;;;;;;;;;;;5015696;28;5109;-64
2023/10/19 06:17:56;;;;;;;;;;;;;;;;;;5015508;28;5402;-64
2023/10/19 06:20:24;;;;;;;;;;;;;;;;;;4996237;28;1845;-64
2023/10/19 06:22:53;;;;;;;;;;;;;;;;;;5014097;28;5003;-65
2023/10/19 06:25:18;;;;;;;;;;;;;;;;;;5013698;28;4887;-65
2023/10/19 06:30:48;;;;;;;;;;;;;;;;;;5034221;28;4968;-64
2023/10/19 06:33:22;;;;;;;;;;;;;;;;;;5015703;28;5109;-64
2023/10/19 06:35:48;;;;;;;;;;;;;;;;;;5019409;28;5161;-63
2023/10/19 06:38:13;;;;;;;;;;;;;;;;;;5007049;28;2527;-64
2023/10/19 06:40:44;;;;;;;;;;;;;;;;;;5015362;28;5224;-64
2023/10/19 06:43:11;;;;;;;;;;;;;;;;;;5015404;28;5049;-64
2023/10/19 06:45:36;;;;;;;;;;;;;;;;;;5024646;28;5118;-64
2023/10/19 06:48:03;;;;;;;;;;;;;;;;;;5014463;28;4744;-64
2023/10/19 06:53:32;;;;;;;;;;;;;;;;;;5031677;28;4716;-64
2023/10/19 06:59:18;;;;;;;;;;;;;;;;;;5015648;28;5043;-64
2023/10/19 07:02:07;;;;;;;;;;;;;;;;;;5014837;28;5004;-64
2023/10/19 07:04:33;;;;;;;;;;;;;;;;;;5047730;28;4526;-64
2023/10/19 07:06:58;;;;;;;;;;;;;;;;;;5054447;28;4686;-64
2023/10/19 07:09:23;;;;;;;;;;;;;;;;;;5054540;28;4449;-59
2023/10/19 07:21:09;;;;;;;;;;;;;;;;;;5034152;28;4485;-59
2023/10/19 07:23:37;;;;;;;;;;;;;;;;;;5027186;28;1207;-58
2023/10/19 07:32:02;;;;;;;;;;;;;;;;;;5013943;28;4639;-58
2023/10/19 07:34:31;;;;;;;;;;;;;;;;;;5013882;28;4994;-58
2023/10/19 07:36:58;;;;;;;;;;;;;;;;;;5012771;28;4634;-59
2023/10/19 07:42:26;;;;;;;;;;;;;;;;;;5009686;28;4710;-59
2023/10/19 07:44:52;;;;;;;;;;;;;;;;;;5012777;28;5071;-60
2023/10/19 07:47:17;;;;;;;;;;;;;;;;;;4994895;28;1352;-58
2023/10/19 07:49:43;;;;;;;;;;;;;;;;;;5014013;28;5040;-58
2023/10/19 07:52:09;;;;;;;;;;;;;;;;;;5021021;28;4646;-58
2023/10/19 07:54:35;;;;;;;;;;;;;;;;;;5033655;28;5061;-59
2023/10/19 07:57:06;;;;;;;;;;;;;;;;;;5031259;28;5020;-63
2023/10/19 07:59:34;;;;;;;;;;;;;;;;;;5041543;28;3179;-58
2023/10/19 08:02:34;;;;;;;;;;;;;;;;;;5033843;28;4932;-58
2023/10/19 08:08:04;;;;;;;;;;;;;;;;;;5033786;28;5199;-58
2023/10/19 08:14:03;;;;;;;;;;;;;;;;;;5029652;28;5185;-58
2023/10/19 08:22:33;;;;;;;;;;;;;;;;;;5027456;28;5041;-58
2023/10/19 08:28:01;;;;;;;;;;;;;;;;;;5033576;28;5075;-58
2023/10/19 08:33:29;;;;;;;;;;;;;;;;;;5033616;28;4556;-58
2023/10/19 08:35:59;;;;;;;;;;;;;;;;;;5033200;28;4579;-59
2023/10/19 08:38:25;;;;;;;;;;;;;;;;;;5033892;28;1073;-58
2023/10/19 08:40:51;;;;;;;;;;;;;;;;;;5033015;28;4882;-59
2023/10/19 08:46:19;;;;;;;;;;;;;;;;;;5018649;28;4983;-58
2023/10/19 08:48:44;;;;;;;;;;;;;;;;;;5013498;28;4615;-59
2023/10/19 08:51:09;;;;;;;;;;;;;;;;;;5015868;28;4717;-59
2023/10/19 08:53:39;;;;;;;;;;;;;;;;;;5018623;28;1348;-59
2023/10/19 08:59:08;;;;;;;;;;;;;;;;;;5016404;28;4353;-58
2023/10/19 09:04:43;;;;;;;;;;;;;;;;;;5037351;28;4970;-58
2023/10/19 09:07:10;;;;;;;;;;;;;;;;;;5034758;28;5166;-58
2023/10/19 09:09:39;;;;;;;;;;;;;;;;;;5036280;28;5011;-58
2023/10/19 09:24:34;;;;;;;;;;;;;;;;;;5016248;28;4560;-58
2023/10/19 09:30:02;;;;;;;;;;;;;;;;;;5016742;28;4608;-58
2023/10/19 09:38:57;;;;;;;;;;;;;;;;;;5036935;28;4695;-58
2023/10/19 09:41:28;;;;;;;;;;;;;;;;;;5035739;28;4560;-59
2023/10/19 09:43:55;;;;;;;;;;;;;;;;;;5028696;28;4371;-59
2023/10/19 09:49:24;;;;;;;;;;;;;;;;;;5016532;28;4444;-59
2023/10/19 09:51:49;;;;;;;;;;;;;;;;;;5018532;28;4538;-59
2023/10/19 09:54:21;;;;;;;;;;;;;;;;;;5018309;28;4619;-59
2023/10/19 09:56:46;;;;;;;;;;;;;;;;;;5003674;28;5233;-59
2023/10/19 09:59:41;;;;;;;;;;;;;;;;;;5024035;28;2884;-59
2023/10/19 10:02:07;;;;;;;;;;;;;;;;;;5026136;28;4457;-59
2023/10/19 10:13:41;;;;;;;;;;;;;;;;;;5016016;28;5167;-59
2023/10/19 10:16:06;;;;;;;;;;;;;;;;;;5022478;28;5169;-59
2023/10/19 10:18:32;;;;;;;;;;;;;;;;;;5015255;28;4465;-59
2023/10/19 10:21:08;;;;;;;;;;;;;;;;;;5030372;28;4494;-59
2023/10/19 10:26:57;;;;;;;;;;;;;;;;;;5014671;28;4519;-59
2023/10/19 10:29:23;;;;;;;;;;;;;;;;;;5030748;28;4997;-59
2023/10/19 10:31:49;;;;;;;;;;;;;;;;;;5014123;28;4988;-59
2023/10/19 10:37:16;;;;;;;;;;;;;;;;;;5015263;28;5018;-59
2023/10/19 10:39:44;;;;;;;;;;;;;;;;;;5014681;28;5058;-60
2023/10/19 10:42:09;;;;;;;;;;;;;;;;;;5015333;28;4952;-59
2023/10/19 10:44:45;;;;;;;;;;;;;;;;;;5012888;28;2976;-59
2023/10/19 10:53:16;;;;;;;;;;;;;;;;;;5016189;28;4649;-59
2023/10/19 11:08:13;;;;;;;;;;;;;;;;;;5017504;28;4608;-58
2023/10/19 11:10:38;;;;;;;;;;;;;;;;;;5030357;28;4875;-58
2023/10/19 11:13:03;;;;;;;;;;;;;;;;;;5063483;28;5120;-58
2023/10/19 11:18:32;;;;;;;;;;;;;;;;;;5014269;28;5073;-59
2023/10/19 11:20:59;;;;;;;;;;;;;;;;;;5013863;28;4592;-59
2023/10/19 11:23:42;;;;;;;;;;;;;;;;;;5013906;28;2754;-59
2023/10/19 11:29:44;;;;;;;;;;;;;;;;;;5033887;28;4764;-59
2023/10/19 11:35:12;;;;;;;;;;;;;;;;;;5030154;28;4741;-59
2023/10/19 11:37:50;;;;;;;;;;;;;;;;;;5014499;28;4946;-59
2023/10/19 11:40:15;;;;;;;;;;;;;;;;;;5012224;28;5123;-58
2023/10/19 11:42:40;;;;;;;;;;;;;;;;;;5009490;28;4991;-58
2023/10/19 11:45:06;;;;;;;;;;;;;;;;;;5016710;28;5567;-58
2023/10/19 11:47:31;;;;;;;;;;;;;;;;;;5034310;28;984;-58
2023/10/19 11:49:57;;;;;;;;;;;;;;;;;;5034411;28;4920;-58
2023/10/19 11:52:41;;;;;;;;;;;;;;;;;;5015871;28;4538;-58
2023/10/19 11:58:11;;;;;;;;;;;;;;;;;;5013992;28;5174;-58
2023/10/19 12:00:37;;;;;;;;;;;;;;;;;;5014031;28;5064;-58
2023/10/19 12:03:03;;;;;;;;;;;;;;;;;;5029113;28;5413;-58
2023/10/19 12:08:32;;;;;;;;;;;;;;;;;;5010845;28;4553;-58
2023/10/19 12:10:57;;;;;;;;;;;;;;;;;;5021022;28;5067;-58
2023/10/19 12:13:24;;;;;;;;;;;;;;;;;;5016140;28;4971;-58
2023/10/19 12:15:52;;;;;;;;;;;;;;;;;;5033497;28;4745;-59
2023/10/19 12:18:19;;;;;;;;;;;;;;;;;;5033559;28;4431;-58
2023/10/19 12:20:45;;;;;;;;;;;;;;;;;;5021695;28;1116;-59
2023/10/19 12:23:11;;;;;;;;;;;;;;;;;;5014187;28;4970;-58
2023/10/19 12:25:38;;;;;;;;;;;;;;;;;;5012911;28;5039;-58
2023/10/19 12:31:39;;;;;;;;;;;;;;;;;;5016172;28;4975;-58
2023/10/19 12:34:40;;;;;;;;;;;;;;;;;;5008926;28;4619;-58
2023/10/19 12:40:26;;;;;;;;;;;;;;;;;;5033979;28;5057;-58
2023/10/19 12:42:52;;;;;;;;;;;;;;;;;;5027519;28;5044;-58
2023/10/19 12:45:19;;;;;;;;;;;;;;;;;;5016224;28;5012;-59
2023/10/19 12:50:47;;;;;;;;;;;;;;;;;;5047450;28;5230;-58
2023/10/19 12:56:16;;;;;;;;;;;;;;;;;;5057876;28;4593;-57
2023/10/19 12:58:42;;;;;;;;;;;;;;;;;;5056704;28;4459;-59
2023/10/19 13:01:16;;;;;;;;;;;;;;;;;;5056940;28;4623;-59
2023/10/19 13:03:42;;;;;;;;;;;;;;;;;;5019831;28;4679;-59
2023/10/19 13:06:07;;;;;;;;;;;;;;;;;;5016937;28;5067;-59
2023/10/19 13:08:32;;;;;;;;;;;;;;;;;;5014713;28;1092;-57
2023/10/19 13:10:57;;;;;;;;;;;;;;;;;;5016655;28;4429;-57
2023/10/19 13:19:44;;;;;;;;;;;;;;;;;;5038904;28;5067;-58
2023/10/19 13:28:23;;;;;;;;;;;;;;;;;;5055981;28;4429;-59
2023/10/19 13:30:50;;;;;;;;;;;;;;;;;;5028149;28;4913;-59
2023/10/19 13:33:15;;;;;;;;;;;;;;;;;;5015995;28;4823;-59
2023/10/19 13:35:41;;;;;;;;;;;;;;;;;;5015113;28;1110;-59
2023/10/19 13:41:46;;;;;;;;;;;;;;;;;;5016918;28;4424;-59
2023/10/19 13:44:11;;;;;;;;;;;;;;;;;;5022909;28;5594;-59
2023/10/19 13:46:37;;;;;;;;;;;;;;;;;;5035913;28;4697;-59
2023/10/19 13:49:05;;;;;;;;;;;;;;;;;;5035995;28;5004;-58
2023/10/19 13:52:04;;;;;;;;;;;;;;;;;;5034493;28;4529;-58
2023/10/19 13:55:00;;;;;;;;;;;;;;;;;;5032092;28;4926;-59
2023/10/19 13:57:25;;;;;;;;;;;;;;;;;;5017010;28;5019;-63
2023/10/19 13:59:51;;;;;;;;;;;;;;;;;;4998448;28;5270;-59
2023/10/19 14:02:16;;;;;;;;;;;;;;;;;;5016744;28;1091;-58
2023/10/19 14:04:41;;;;;;;;;;;;;;;;;;5011186;28;4949;-63
2023/10/19 14:07:13;;;;;;;;;;;;;;;;;;5013543;28;4651;-59
2023/10/19 14:09:38;;;;;;;;;;;;;;;;;;5014572;28;4969;-58
2023/10/19 14:12:04;;;;;;;;;;;;;;;;;;5013450;28;5234;-58
2023/10/19 14:14:52;;;;;;;;;;;;;;;;;;5014398;28;1191;-58
2023/10/19 14:17:17;;;;;;;;;;;;;;;;;;5030162;28;5089;-58
2023/10/19 14:19:45;;;;;;;;;;;;;;;;;;5046457;28;4642;-58
2023/10/19 14:22:10;;;;;;;;;;;;;;;;;;5021385;28;4494;-58
2023/10/19 14:25:07;;;;;;;;;;;;;;;;;;5055315;28;4982;-58
2023/10/19 14:27:34;;;;;;;;;;;;;;;;;;5020981;28;5074;-58
2023/10/19 14:29:59;;;;;;;;;;;;;;;;;;5008867;28;4492;-59
2023/10/19 14:32:26;;;;;;;;;;;;;;;;;;4993321;28;1915;-58
2023/10/19 14:34:51;;;;;;;;;;;;;;;;;;4997441;28;4457;-58
2023/10/19 14:37:38;;;;;;;;;;;;;;;;;;5014518;28;4995;-58
2023/10/19 14:40:04;;;;;;;;;;;;;;;;;;4986701;28;5060;-58
2023/10/19 14:42:32;;;;;;;;;;;;;;;;;;4995301;28;4952;-58
2023/10/19 14:44:58;;;;;;;;;;;;;;;;;;4994193;28;5095;-59
2023/10/19 14:47:23;;;;;;;;;;;;;;;;;;4995569;28;1162;-58
2023/10/19 14:49:48;;;;;;;;;;;;;;;;;;4994968;28;5016;-58
2023/10/19 14:52:14;;;;;;;;;;;;;;;;;;4995175;28;4608;-58
2023/10/19 14:54:39;;;;;;;;;;;;;;;;;;4993754;28;4906;-58
2023/10/19 15:03:00;;;;;;;;;;;;;;;;;;4964311;28;5024;-58
2023/10/19 15:05:45;;;;;;;;;;;;;;;;;;4995734;28;1435;-58
2023/10/19 15:08:10;;;;;;;;;;;;;;;;;;4997460;28;5083;-58
2023/10/19 15:10:36;;;;;;;;;;;;;;;;;;5014243;28;5098;-58
2023/10/19 15:31:16;;;;;;;;;;;;;;;;;;5010793;28;4780;-58
2023/10/19 15:33:42;;;;;;;;;;;;;;;;;;5014500;28;5000;-58
2023/10/19 15:36:07;;;;;;;;;;;;;;;;;;5014541;28;5092;-58
2023/10/19 15:41:36;;;;;;;;;;;;;;;;;;5015526;28;4819;-58
2023/10/19 15:44:01;;;;;;;;;;;;;;;;;;5014521;28;5003;-59
2023/10/19 15:46:27;;;;;;;;;;;;;;;;;;5014253;28;4610;-58
2023/10/19 15:48:52;;;;;;;;;;;;;;;;;;5014086;28;5027;-58
2023/10/19 15:51:18;;;;;;;;;;;;;;;;;;5012361;28;4899;-58
2023/10/19 15:59:49;;;;;;;;;;;;;;;;;;5027139;28;5232;-58
2023/10/19 16:11:22;;;;;;;;;;;;;;;;;;5009454;28;4739;-58
2023/10/19 16:13:47;;;;;;;;;;;;;;;;;;5011267;28;5184;-58
2023/10/19 16:16:13;;;;;;;;;;;;;;;;;;4993621;28;4900;-58
2023/10/19 16:22:15;;;;;;;;;;;;;;;;;;5033598;28;4510;-58
2023/10/19 16:24:40;;;;;;;;;;;;;;;;;;5033141;28;5183;-58
2023/10/19 16:27:07;;;;;;;;;;;;;;;;;;5033160;28;4934;-58
2023/10/19 16:29:33;;;;;;;;;;;;;;;;;;5033454;28;1179;-58
2023/10/19 16:34:49;;;;;;;;;;;;;;;;;;5011006;28;5116;-58
2023/10/19 16:37:15;;;;;;;;;;;;;;;;;;5013706;28;4933;-58
2023/10/19 16:39:40;;;;;;;;;;;;;;;;;;5028813;28;5590;-58
2023/10/19 16:42:08;;;;;;;;;;;;;;;;;;5013824;28;4587;-58
2023/10/19 16:44:34;;;;;;;;;;;;;;;;;;5014455;28;1321;-58
2023/10/19 16:50:07;;;;;;;;;;;;;;;;;;5014173;28;4868;-58
2023/10/19 16:52:32;;;;;;;;;;;;;;;;;;5012429;28;4603;-58
2023/10/19 16:54:57;;;;;;;;;;;;;;;;;;5013715;28;5100;-58
2023/10/19 16:57:23;;;;;;;;;;;;;;;;;;5027931;28;4557;-59
2023/10/19 17:00:13;;;;;;;;;;;;;;;;;;5006636;28;5072;-58
2023/10/19 17:02:38;;;;;;;;;;;;;;;;;;5012168;28;1100;-58
2023/10/19 17:05:03;;;;;;;;;;;;;;;;;;5011312;28;4951;-58
2023/10/19 17:07:29;;;;;;;;;;;;;;;;;;5013447;28;4450;-59
2023/10/19 17:12:57;;;;;;;;;;;;;;;;;;5016740;28;5140;-58
2023/10/19 17:15:23;;;;;;;;;;;;;;;;;;5016262;28;5092;-58
2023/10/19 17:17:48;;;;;;;;;;;;;;;;;;5016848;28;5045;-58
2023/10/19 17:20:13;;;;;;;;;;;;;;;;;;5017365;28;1121;-58
2023/10/19 17:26:09;;;;;;;;;;;;;;;;;;5018751;28;4531;-58
2023/10/19 17:29:04;;;;;;;;;;;;;;;;;;5016963;28;4474;-58
2023/10/19 17:34:32;;;;;;;;;;;;;;;;;;5015576;28;4615;-58
2023/10/19 17:37:10;;;;;;;;;;;;;;;;;;5014004;28;5021;-58
2023/10/19 17:39:36;;;;;;;;;;;;;;;;;;5024007;28;4647;-58
2023/10/19 17:42:01;;;;;;;;;;;;;;;;;;5021512;28;4462;-58
2023/10/19 17:50:32;;;;;;;;;;;;;;;;;;5036203;28;4559;-72
2023/10/19 17:53:15;;;;;;;;;;;;;;;;;;5012630;28;5092;-72
2023/10/19 17:55:49;;;;;;;;;;;;;;;;;;5016244;28;5070;-73
2023/10/19 17:58:15;;;;;;;;;;;;;;;;;;5016013;28;4407;-72
2023/10/19 18:00:43;;;;;;;;;;;;;;;;;;5016179;28;5000;-74
2023/10/19 18:03:09;;;;;;;;;;;;;;;;;;5016294;28;4990;-72
2023/10/19 18:08:37;;;;;;;;;;;;;;;;;;5026870;28;4696;-72
2023/10/19 18:11:02;;;;;;;;;;;;;;;;;;5017653;28;4700;-73
2023/10/19 18:13:28;;;;;;;;;;;;;;;;;;5030759;28;5227;-73
2023/10/19 18:15:53;;;;;;;;;;;;;;;;;;5026054;28;4547;-73
2023/10/19 18:21:55;;;;;;;;;;;;;;;;;;5022593;28;5191;-74
2023/10/19 18:24:32;;;;;;;;;;;;;;;;;;5030621;28;4925;-73
2023/10/19 18:27:19;;;;;;;;;;;;;;;;;;5018142;28;5037;-73
2023/10/19 18:32:48;;;;;;;;;;;;;;;;;;5015287;28;4478;-73
2023/10/19 18:35:14;;;;;;;;;;;;;;;;;;5045786;28;1185;-71
2023/10/19 18:37:58;;;;;;;;;;;;;;;;;;5051212;28;4535;-77
2023/10/19 18:40:25;;;;;;;;;;;;;;;;;;5018297;28;4681;-77
2023/10/19 18:45:47;;;;;;;;;;;;;;;;;;5008650;28;5213;-77
2023/10/19 18:51:15;;;;;;;;;;;;;;;;;;5035226;28;4630;-76
2023/10/19 18:59:46;;;;;;;;;;;;;;;;;;5009191;28;5238;-77
2023/10/19 19:02:11;;;;;;;;;;;;;;;;;;5018782;28;1128;-77
2023/10/19 19:04:38;;;;;;;;;;;;;;;;;;5017223;28;5018;-77
2023/10/19 19:07:03;;;;;;;;;;;;;;;;;;5031065;28;4516;-77
2023/10/19 19:09:28;;;;;;;;;;;;;;;;;;5034370;28;5166;-77
2023/10/19 19:11:55;;;;;;;;;;;;;;;;;;5034539;28;5065;-77
2023/10/19 19:14:23;;;;;;;;;;;;;;;;;;5028338;28;2751;-76
2023/10/19 19:16:50;;;;;;;;;;;;;;;;;;5013140;28;4957;-77
2023/10/19 19:19:17;;;;;;;;;;;;;;;;;;5027632;28;5170;-75
2023/10/19 19:24:45;;;;;;;;;;;;;;;;;;5034689;28;4608;-76
2023/10/19 19:27:10;;;;;;;;;;;;;;;;;;5014135;28;4994;-76
2023/10/19 19:29:36;;;;;;;;;;;;;;;;;;5017379;28;6115;-76
2023/10/19 19:32:06;;;;;;;;;;;;;;;;;;5032645;28;5068;-78
2023/10/19 19:37:35;;;;;;;;;;;;;;;;;;5030617;28;5109;-78
2023/10/19 19:40:02;;;;;;;;;;;;;;;;;;5016511;28;5216;-76
2023/10/19 19:42:27;;;;;;;;;;;;;;;;;;5011825;28;4555;-75
2023/10/19 19:44:52;;;;;;;;;;;;;;;;;;5034193;28;5136;-78
2023/10/19 19:50:20;;;;;;;;;;;;;;;;;;5035025;28;4767;-78
2023/10/19 19:52:46;;;;;;;;;;;;;;;;;;5034061;28;4929;-78
2023/10/19 19:55:12;;;;;;;;;;;;;;;;;;5034343;28;4996;-76
2023/10/19 19:57:37;;;;;;;;;;;;;;;;;;5032642;28;4961;-76
2023/10/19 20:03:08;;;;;;;;;;;;;;;;;;5034236;28;4648;-78
2023/10/19 20:05:33;;;;;;;;;;;;;;;;;;5018684;28;2839;-76
2023/10/19 20:07:59;;;;;;;;;;;;;;;;;;5033828;28;5047;-78
2023/10/19 20:10:36;;;;;;;;;;;;;;;;;;5033624;28;4935;-78
2023/10/19 20:16:07;;;;;;;;;;;;;;;;;;5027667;28;5087;-78
2023/10/19 20:18:32;;;;;;;;;;;;;;;;;;5011301;28;5066;-77
2023/10/19 20:20:58;;;;;;;;;;;;;;;;;;5016004;28;5033;-77
2023/10/19 20:23:23;;;;;;;;;;;;;;;;;;5027217;28;1093;-78
2023/10/19 20:25:49;;;;;;;;;;;;;;;;;;5011289;28;4504;-78
2023/10/19 20:28:14;;;;;;;;;;;;;;;;;;5012200;28;5076;-76
2023/10/19 20:30:39;;;;;;;;;;;;;;;;;;5014060;28;4731;-79
2023/10/19 20:33:06;;;;;;;;;;;;;;;;;;5012110;28;4946;-79
2023/10/19 20:41:58;;;;;;;;;;;;;;;;;;5031233;28;4805;-80
2023/10/19 20:44:30;;;;;;;;;;;;;;;;;;5018528;28;5052;-78
2023/10/19 20:46:55;;;;;;;;;;;;;;;;;;5014154;28;4956;-79
2023/10/19 20:49:20;;;;;;;;;;;;;;;;;;5014606;28;4613;-79
2023/10/19 20:58:16;;;;;;;;;;;;;;;;;;5037706;28;4656;-78
2023/10/19 21:00:41;;;;;;;;;;;;;;;;;;5035729;28;5138;-78
2023/10/19 21:03:07;;;;;;;;;;;;;;;;;;5053076;28;4972;-76
2023/10/19 21:05:32;;;;;;;;;;;;;;;;;;5030182;28;1178;-77
2023/10/19 21:20:29;;;;;;;;;;;;;;;;;;5037502;28;4442;-77
2023/10/19 21:22:55;;;;;;;;;;;;;;;;;;5017882;28;4628;-77
2023/10/19 21:25:20;;;;;;;;;;;;;;;;;;5017284;28;4967;-77
2023/10/19 21:27:47;;;;;;;;;;;;;;;;;;5015519;28;5718;-77
2023/10/19 21:30:13;;;;;;;;;;;;;;;;;;5017534;28;5099;-77
2023/10/19 21:32:39;;;;;;;;;;;;;;;;;;5017381;28;1914;-77
2023/10/19 21:35:04;;;;;;;;;;;;;;;;;;5017156;28;5089;-76
2023/10/19 21:37:31;;;;;;;;;;;;;;;;;;5017006;28;4836;-77
2023/10/19 21:42:59;;;;;;;;;;;;;;;;;;5016661;28;4715;-76
2023/10/19 21:45:24;;;;;;;;;;;;;;;;;;5015324;28;5050;-76
2023/10/19 21:50:59;;;;;;;;;;;;;;;;;;5015543;28;4434;-75
2023/10/19 21:53:24;;;;;;;;;;;;;;;;;;5017000;28;1906;-78
2023/10/19 21:55:52;;;;;;;;;;;;;;;;;;5016520;28;4955;-77
2023/10/19 21:58:18;;;;;;;;;;;;;;;;;;5015035;28;4535;-79
2023/10/19 22:03:46;;;;;;;;;;;;;;;;;;5014610;28;4855;-79
2023/10/19 22:09:16;;;;;;;;;;;;;;;;;;5015725;28;5380;-78
2023/10/19 22:11:42;;;;;;;;;;;;;;;;;;5033190;28;1922;-78
2023/10/19 22:14:07;;;;;;;;;;;;;;;;;;5036032;28;4530;-78
2023/10/19 22:16:32;;;;;;;;;;;;;;;;;;5036061;28;4889;-78
2023/10/19 22:25:03;;;;;;;;;;;;;;;;;;5036503;28;4957;-79
2023/10/19 22:27:31;;;;;;;;;;;;;;;;;;5035650;28;5077;-80
2023/10/19 22:29:57;;;;;;;;;;;;;;;;;;5035978;28;4946;-80
2023/10/19 22:32:22;;;;;;;;;;;;;;;;;;5011604;28;1914;-77
2023/10/19 22:34:47;;;;;;;;;;;;;;;;;;5015860;28;5048;-78
2023/10/19 22:37:12;;;;;;;;;;;;;;;;;;5015734;28;4727;-78
2023/10/19 22:39:38;;;;;;;;;;;;;;;;;;5014364;28;5075;-78
2023/10/19 22:42:04;;;;;;;;;;;;;;;;;;5031130;28;5170;-79
2023/10/19 22:47:32;;;;;;;;;;;;;;;;;;5016668;28;4560;-79
2023/10/19 22:49:58;;;;;;;;;;;;;;;;;;5030512;28;5027;-77
2023/10/19 22:52:26;;;;;;;;;;;;;;;;;;5006381;28;4424;-73
2023/10/19 23:00:56;;;;;;;;;;;;;;;;;;5033399;28;5177;-79
2023/10/19 23:06:25;;;;;;;;;;;;;;;;;;5027542;28;5221;-78
2023/10/19 23:08:54;;;;;;;;;;;;;;;;;;5034074;28;5036;-78
2023/10/19 23:11:23;;;;;;;;;;;;;;;;;;5035532;28;1910;-78
2023/10/19 23:19:54;;;;;;;;;;;;;;;;;;5035392;28;4870;-79
2023/10/19 23:22:20;;;;;;;;;;;;;;;;;;5030984;28;4942;-78
2023/10/19 23:24:49;;;;;;;;;;;;;;;;;;5014601;28;4539;-79
2023/10/19 23:27:15;;;;;;;;;;;;;;;;;;5015107;28;5124;-79
2023/10/19 23:29:47;;;;;;;;;;;;;;;;;;5054414;28;958;-80
2023/10/19 23:32:12;;;;;;;;;;;;;;;;;;5016774;28;5039;-78
2023/10/19 23:34:38;;;;;;;;;;;;;;;;;;5020090;28;4926;-79
2023/10/19 23:40:19;;;;;;;;;;;;;;;;;;5033508;28;4693;-79
2023/10/19 23:48:56;;;;;;;;;;;;;;;;;;5013285;28;5026;-79
2023/10/19 23:54:25;;;;;;;;;;;;;;;;;;5014525;28;4446;-80
2023/10/19 23:56:50;;;;;;;;;;;;;;;;;;5014379;28;5150;-79
2023/10/19 23:59:16;;;;;;;;;;;;;;;;;;5014978;28;1096;-80
